Time;durP1;ratioP1;P1;durP2;ratioP2;P2;SDS_P1;SDS_P2;PMS_P1;PMS_P2;Temp;Humidity;BMP_temperature;BMP_pressure;BME280_temperature;BME280_humidity;BME280_pressure;Samples;Min_cycle;Max_cycle;Signal;HPM_P1;HPM_P2
2023/06/15 00:00:17;;;;;;;;;;;;;;;24.94;42.20;100637.32;103743;1285;62095;-83
2023/06/15 00:02:42;;;;;;;;;;;;;;;24.95;42.20;100638.75;103851;1288;62298;-82
2023/06/15 00:05:08;;;;;;;;;;;;;;;24.94;42.16;100636.80;103872;1285;62157;-82
2023/06/15 00:07:33;;;;;;;;;;;;;;;24.93;42.32;100640.79;103816;1286;62187;-82
2023/06/15 00:09:59;;;;;;;;;;;;;;;24.93;42.22;100638.45;103848;1289;62216;-82
2023/06/15 00:12:25;;;;;;;;;;;;;;;24.94;42.20;100643.83;103829;1284;62082;-81
2023/06/15 00:14:50;;;;;;;;;;;;;;;24.93;42.16;100645.14;103762;1285;62078;-82
2023/06/15 00:17:16;;;;;;;;;;;;;;;24.93;42.26;100646.39;103784;1291;63633;-82
2023/06/15 00:19:41;;;;;;;;;;;;;;;24.93;42.30;100644.05;103785;1286;62204;-82
2023/06/15 00:22:09;;;;;;;;;;;;;;;24.93;42.35;100643.69;103865;1286;63357;-81
2023/06/15 00:24:35;;;;;;;;;;;;;;;24.93;42.28;100641.73;103692;1285;62270;-83
2023/06/15 00:27:01;;;;;;;;;;;;;;;24.93;42.25;100639.96;103888;1286;62303;-82
2023/06/15 00:29:26;;;;;;;;;;;;;;;24.93;42.35;100643.71;103772;1285;62275;-82
2023/06/15 00:31:52;;;;;;;;;;;;;;;24.93;42.29;100644.80;103811;1286;62256;-82
2023/06/15 00:34:17;;;;;;;;;;;;;;;24.92;42.29;100643.23;103740;1291;62832;-82
2023/06/15 00:36:43;;;;;;;;;;;;;;;24.92;42.33;100643.95;103781;1287;62298;-82
2023/06/15 00:39:09;;;;;;;;;;;;;;;24.92;42.35;100642.33;103916;1286;62246;-83
2023/06/15 00:41:41;;;;;;;;;;;;;;;24.93;42.37;100637.08;103858;1285;62471;-82
2023/06/15 00:44:07;;;;;;;;;;;;;;;24.93;42.38;100635.65;103817;1290;62187;-82
2023/06/15 00:46:32;;;;;;;;;;;;;;;24.92;42.39;100636.95;103913;1285;62208;-82
2023/06/15 00:48:58;;;;;;;;;;;;;;;24.92;42.16;100638.56;103943;1285;62100;-82
2023/06/15 00:51:23;;;;;;;;;;;;;;;24.91;42.28;100640.98;103666;1285;62236;-82
2023/06/15 00:53:49;;;;;;;;;;;;;;;24.92;42.25;100641.46;103913;1288;62172;-82
2023/06/15 00:56:16;;;;;;;;;;;;;;;24.92;42.28;100641.33;103880;1289;62864;-82
2023/06/15 00:58:42;;;;;;;;;;;;;;;24.91;42.27;100639.90;103853;1289;62136;-82
2023/06/15 01:01:08;;;;;;;;;;;;;;;24.91;42.26;100639.91;103983;1285;62117;-82
2023/06/15 01:03:35;;;;;;;;;;;;;;;24.92;42.44;100638.96;104163;1287;62269;-82
2023/06/15 01:06:01;;;;;;;;;;;;;;;24.91;42.44;100640.81;104052;1286;62807;-82
2023/06/15 01:08:26;;;;;;;;;;;;;;;24.91;42.41;100634.33;103726;1291;62295;-82
2023/06/15 01:10:56;;;;;;;;;;;;;;;24.91;42.35;100634.90;103751;1285;62269;-82
2023/06/15 01:13:22;;;;;;;;;;;;;;;24.91;42.42;100630.20;103835;1285;67601;-82
2023/06/15 01:15:48;;;;;;;;;;;;;;;24.91;42.48;100628.08;103751;1286;62176;-82
2023/06/15 01:18:20;;;;;;;;;;;;;;;24.91;42.47;100625.21;103780;1286;62238;-83
2023/06/15 01:20:48;;;;;;;;;;;;;;;24.91;42.42;100626.99;103863;1285;64763;-82
2023/06/15 01:23:28;;;;;;;;;;;;;;;24.90;42.49;100623.96;103905;1288;66652;-82
2023/06/15 01:26:01;;;;;;;;;;;;;;;24.91;42.42;100623.05;103966;1285;62191;-82
2023/06/15 01:28:30;;;;;;;;;;;;;;;24.90;42.53;100620.95;103933;1286;62040;-82
2023/06/15 01:30:55;;;;;;;;;;;;;;;24.90;42.38;100620.21;103909;1288;73235;-82
2023/06/15 01:33:21;;;;;;;;;;;;;;;24.90;42.47;100623.45;103899;1284;62133;-82
2023/06/15 01:35:47;;;;;;;;;;;;;;;24.90;42.43;100622.59;103712;1285;62192;-82
2023/06/15 01:38:13;;;;;;;;;;;;;;;24.90;42.42;100621.16;103757;1285;62789;-82
2023/06/15 01:40:39;;;;;;;;;;;;;;;24.90;42.48;100617.39;103661;1286;62169;-82
2023/06/15 01:43:05;;;;;;;;;;;;;;;24.89;42.47;100617.05;103714;1291;63303;-82
2023/06/15 01:45:31;;;;;;;;;;;;;;;24.89;42.46;100617.27;103880;1284;62807;-82
2023/06/15 01:47:56;;;;;;;;;;;;;;;24.89;42.52;100618.13;103717;1285;62178;-82
2023/06/15 01:50:22;;;;;;;;;;;;;;;24.89;42.44;100614.59;103861;1285;62289;-82
2023/06/15 01:52:48;;;;;;;;;;;;;;;24.89;42.50;100616.38;103839;1288;62170;-82
2023/06/15 01:55:13;;;;;;;;;;;;;;;24.89;42.55;100616.01;103927;1288;62255;-82
2023/06/15 01:57:39;;;;;;;;;;;;;;;24.89;42.46;100616.04;103724;1285;62853;-82
2023/06/15 02:00:06;;;;;;;;;;;;;;;24.89;42.53;100619.08;103883;1285;62176;-82
2023/06/15 02:02:34;;;;;;;;;;;;;;;24.89;42.43;100615.50;103708;1285;62300;-83
2023/06/15 02:05:01;;;;;;;;;;;;;;;24.89;42.48;100617.85;103805;1286;63753;-82
2023/06/15 02:07:27;;;;;;;;;;;;;;;24.88;42.53;100618.76;103756;1285;66650;-82
2023/06/15 02:09:53;;;;;;;;;;;;;;;24.88;42.55;100617.88;103810;1285;62274;-81
2023/06/15 02:12:18;;;;;;;;;;;;;;;24.88;42.66;100619.53;103874;1285;62098;-81
2023/06/15 02:14:44;;;;;;;;;;;;;;;24.89;42.66;100623.96;103774;1286;63197;-82
2023/06/15 02:17:10;;;;;;;;;;;;;;;24.88;42.67;100623.64;103892;1285;62207;-82
2023/06/15 02:19:36;;;;;;;;;;;;;;;24.88;42.55;100621.31;103804;1285;67396;-82
2023/06/15 02:22:01;;;;;;;;;;;;;;;24.88;42.57;100624.19;103818;1290;62245;-82
2023/06/15 02:24:27;;;;;;;;;;;;;;;24.88;42.64;100624.95;103756;1285;62191;-82
2023/06/15 02:26:53;;;;;;;;;;;;;;;24.88;42.64;100626.36;103743;1289;62254;-82
2023/06/15 02:29:19;;;;;;;;;;;;;;;24.88;42.72;100624.73;103833;1286;62798;-82
2023/06/15 02:31:44;;;;;;;;;;;;;;;24.87;42.59;100626.05;103804;1287;62595;-82
2023/06/15 02:34:10;;;;;;;;;;;;;;;24.87;42.60;100624.96;103819;1285;62110;-82
2023/06/15 02:36:37;;;;;;;;;;;;;;;24.87;42.67;100629.29;103746;1285;62463;-82
2023/06/15 02:39:03;;;;;;;;;;;;;;;24.88;42.63;100635.20;103698;1284;65006;-82
2023/06/15 02:41:28;;;;;;;;;;;;;;;24.87;42.63;100633.45;103968;1286;63387;-81
2023/06/15 02:43:55;;;;;;;;;;;;;;;24.87;42.64;100633.86;103768;1285;62180;-81
2023/06/15 02:46:22;;;;;;;;;;;;;;;24.87;42.67;100633.64;103696;1287;62212;-82
2023/06/15 02:48:51;;;;;;;;;;;;;;;24.87;42.68;100632.73;103982;1285;62088;-82
2023/06/15 02:51:18;;;;;;;;;;;;;;;24.87;42.62;100630.58;103765;1285;66721;-82
2023/06/15 02:53:44;;;;;;;;;;;;;;;24.87;42.63;100634.01;104035;1285;62212;-82
2023/06/15 02:56:09;;;;;;;;;;;;;;;24.87;42.77;100633.64;103778;1285;62171;-83
2023/06/15 02:58:37;;;;;;;;;;;;;;;24.87;42.72;100635.06;103816;1287;62146;-82
2023/06/15 03:01:03;;;;;;;;;;;;;;;24.87;42.59;100635.96;103773;1286;62187;-82
2023/06/15 03:03:29;;;;;;;;;;;;;;;24.87;42.68;100636.67;103953;1285;63355;-82
2023/06/15 03:05:55;;;;;;;;;;;;;;;24.87;42.78;100633.95;103818;1285;62184;-82
2023/06/15 03:08:23;;;;;;;;;;;;;;;24.88;42.70;100635.04;103690;1286;62192;-82
2023/06/15 03:10:51;;;;;;;;;;;;;;;24.87;42.80;100637.75;103811;1285;62184;-82
2023/06/15 03:13:16;;;;;;;;;;;;;;;24.87;42.80;100637.73;103845;1285;63437;-82
2023/06/15 03:15:42;;;;;;;;;;;;;;;24.87;42.67;100636.34;103919;1288;62213;-82
2023/06/15 03:18:08;;;;;;;;;;;;;;;24.87;42.80;100637.42;103736;1287;62190;-83
2023/06/15 03:20:33;;;;;;;;;;;;;;;24.88;42.70;100637.91;103783;1285;63352;-82
2023/06/15 03:22:59;;;;;;;;;;;;;;;24.88;42.78;100635.38;103899;1288;62206;-82
2023/06/15 03:25:25;;;;;;;;;;;;;;;24.88;42.78;100637.17;103964;1284;62851;-82
2023/06/15 03:27:53;;;;;;;;;;;;;;;24.88;42.81;100636.43;103973;1285;62202;-82
2023/06/15 03:30:19;;;;;;;;;;;;;;;24.88;42.73;100634.27;103950;1286;63646;-82
2023/06/15 03:32:47;;;;;;;;;;;;;;;24.88;42.79;100638.93;103746;1285;67581;-82
2023/06/15 03:35:14;;;;;;;;;;;;;;;24.88;42.85;100639.50;103859;1284;62115;-82
2023/06/15 03:37:39;;;;;;;;;;;;;;;24.88;42.88;100642.75;103951;1286;62201;-82
2023/06/15 03:40:05;;;;;;;;;;;;;;;24.88;42.67;100641.66;103810;1285;62672;-82
2023/06/15 03:42:31;;;;;;;;;;;;;;;24.88;42.76;100640.05;103507;1285;62500;-82
2023/06/15 03:44:57;;;;;;;;;;;;;;;24.88;42.79;100638.20;103795;1291;63253;-82
2023/06/15 03:47:22;;;;;;;;;;;;;;;24.88;42.79;100637.31;103852;1285;62256;-82
2023/06/15 03:49:48;;;;;;;;;;;;;;;24.88;42.86;100635.74;103857;1285;62273;-82
2023/06/15 03:52:13;;;;;;;;;;;;;;;24.88;42.79;100637.57;103741;1285;62194;-82
2023/06/15 03:54:39;;;;;;;;;;;;;;;24.88;42.83;100641.85;103504;1294;62244;-83
2023/06/15 03:57:05;;;;;;;;;;;;;;;24.88;42.70;100641.86;103515;1288;62368;-82
2023/06/15 03:59:31;;;;;;;;;;;;;;;24.87;42.84;100639.01;103449;1288;63149;-81
2023/06/15 04:01:56;;;;;;;;;;;;;;;24.87;42.86;100641.54;103641;1292;62206;-81
2023/06/15 04:04:22;;;;;;;;;;;;;;;24.87;42.77;100641.57;103529;1288;62687;-82
2023/06/15 04:06:47;;;;;;;;;;;;;;;24.87;42.73;100645.30;103453;1288;63252;-82
2023/06/15 04:09:14;;;;;;;;;;;;;;;24.87;42.58;100643.86;103556;1290;62160;-81
2023/06/15 04:11:40;;;;;;;;;;;;;;;24.87;42.67;100642.24;103387;1292;63546;-82
2023/06/15 04:14:05;;;;;;;;;;;;;;;24.87;42.76;100646.98;103205;1290;62212;-82
2023/06/15 04:16:31;;;;;;;;;;;;;;;24.86;42.74;100651.19;103311;1291;62250;-82
2023/06/15 04:18:57;;;;;;;;;;;;;;;24.85;42.88;100653.27;103270;1291;62203;-81
2023/06/15 04:21:23;;;;;;;;;;;;;;;24.83;42.65;100654.86;103394;1289;63911;-82
2023/06/15 04:23:48;;;;;;;;;;;;;;;24.83;42.80;100656.20;103526;1290;63246;-82
2023/06/15 04:26:13;;;;;;;;;;;;;;;24.82;42.79;100663.59;103726;1285;62413;-82
2023/06/15 04:28:39;;;;;;;;;;;;;;;24.83;42.83;100666.36;103954;1288;62407;-82
2023/06/15 04:31:09;;;;;;;;;;;;;;;24.83;42.73;100668.96;104003;1284;63472;-82
2023/06/15 04:33:36;;;;;;;;;;;;;;;24.83;42.72;100664.27;105838;1287;62195;-82
2023/06/15 04:36:03;;;;;;;;;;;;;;;24.83;42.83;100664.30;103822;1286;62568;-83
2023/06/15 04:38:29;;;;;;;;;;;;;;;24.81;42.84;100663.72;103872;1286;62134;-83
2023/06/15 04:40:56;;;;;;;;;;;;;;;24.79;42.76;100670.80;103865;1286;62250;-83
2023/06/15 04:43:22;;;;;;;;;;;;;;;24.75;42.82;100674.66;104002;1285;62105;-84
2023/06/15 04:45:48;;;;;;;;;;;;;;;24.71;42.86;100679.71;104074;1285;63905;-85
2023/06/15 04:48:13;;;;;;;;;;;;;;;24.68;42.89;100677.30;104299;1285;62206;-85
2023/06/15 04:50:39;;;;;;;;;;;;;;;24.69;42.91;100679.41;104014;1285;62361;-84
2023/06/15 04:53:05;;;;;;;;;;;;;;;24.69;42.90;100678.85;104134;1285;62500;-83
2023/06/15 04:55:30;;;;;;;;;;;;;;;24.69;42.86;100678.63;104488;1285;62170;-83
2023/06/15 04:57:56;;;;;;;;;;;;;;;24.69;42.88;100679.86;104589;1285;63917;-83
2023/06/15 05:00:22;;;;;;;;;;;;;;;24.67;43.00;100680.75;104533;1285;62261;-84
2023/06/15 05:02:48;;;;;;;;;;;;;;;24.65;43.00;100679.72;104840;1285;62187;-84
2023/06/15 05:05:14;;;;;;;;;;;;;;;24.64;43.07;100677.45;104851;1286;62141;-84
2023/06/15 05:07:39;;;;;;;;;;;;;;;24.65;43.00;100678.44;104810;1285;62167;-84
2023/06/15 05:10:05;;;;;;;;;;;;;;;24.68;43.04;100675.70;104792;1287;62152;-85
2023/06/15 05:12:31;;;;;;;;;;;;;;;24.70;43.27;100676.86;105015;1285;62086;-83
2023/06/15 05:14:57;;;;;;;;;;;;;;;24.73;43.25;100680.44;104970;1285;62279;-83
2023/06/15 05:17:23;;;;;;;;;;;;;;;24.76;43.14;100681.98;105173;1285;60671;-85
2023/06/15 05:19:48;;;;;;;;;;;;;;;24.81;43.13;100683.02;104991;1285;60940;-84
2023/06/15 05:22:14;;;;;;;;;;;;;;;24.85;43.36;100688.19;104907;1284;62204;-86
2023/06/15 05:24:40;;;;;;;;;;;;;;;24.88;43.43;100683.55;105193;1284;62087;-84
2023/06/15 05:27:08;;;;;;;;;;;;;;;24.90;43.22;100679.80;105617;1286;62107;-83
2023/06/15 05:29:36;;;;;;;;;;;;;;;24.93;43.52;100680.08;105451;1286;62065;-84
2023/06/15 05:32:02;;;;;;;;;;;;;;;24.97;43.50;100679.23;105301;1284;66681;-84
2023/06/15 05:34:27;;;;;;;;;;;;;;;25.01;43.52;100683.01;104982;1290;62210;-84
2023/06/15 05:36:53;;;;;;;;;;;;;;;25.04;43.43;100686.12;105308;1285;62198;-84
2023/06/15 05:39:19;;;;;;;;;;;;;;;25.07;43.39;100692.35;105331;1290;61055;-84
2023/06/15 05:41:47;;;;;;;;;;;;;;;25.09;43.51;100690.31;105173;1284;62166;-83
2023/06/15 05:44:16;;;;;;;;;;;;;;;25.11;43.59;100688.89;105381;1284;59877;-83
2023/06/15 05:46:42;;;;;;;;;;;;;;;25.12;43.52;100688.64;105442;1285;62025;-84
2023/06/15 05:49:10;;;;;;;;;;;;;;;25.14;43.51;100691.38;105181;1285;60126;-85
2023/06/15 05:51:43;;;;;;;;;;;;;;;25.14;43.57;100689.02;105245;1285;75989;-84
2023/06/15 05:54:09;;;;;;;;;;;;;;;25.14;43.53;100691.55;105359;1285;60833;-83
2023/06/15 05:56:35;;;;;;;;;;;;;;;25.15;43.46;100693.40;105142;1284;62210;-82
2023/06/15 05:59:00;;;;;;;;;;;;;;;25.15;43.46;100698.09;105293;1285;61998;-84
2023/06/15 06:01:28;;;;;;;;;;;;;;;25.15;43.53;100694.73;105205;1285;62176;-83
2023/06/15 06:03:58;;;;;;;;;;;;;;;25.16;43.40;100692.66;105327;1284;61999;-83
2023/06/15 06:06:24;;;;;;;;;;;;;;;25.17;43.49;100692.58;105486;1284;60374;-84
2023/06/15 06:08:49;;;;;;;;;;;;;;;25.18;43.48;100692.80;105714;1285;60665;-83
2023/06/15 06:11:15;;;;;;;;;;;;;;;25.19;43.43;100692.02;105349;1284;62113;-83
2023/06/15 06:13:40;;;;;;;;;;;;;;;25.21;43.69;100695.80;105159;1285;62182;-83
2023/06/15 06:16:06;;;;;;;;;;;;;;;25.23;43.72;100695.55;104852;1285;62119;-83
2023/06/15 06:18:32;;;;;;;;;;;;;;;25.26;43.66;100699.48;104914;1287;62096;-83
2023/06/15 06:20:57;;;;;;;;;;;;;;;25.28;43.57;100700.19;105220;1285;62129;-83
2023/06/15 06:23:23;;;;;;;;;;;;;;;25.30;43.75;100701.63;105398;1286;62128;-83
2023/06/15 06:25:48;;;;;;;;;;;;;;;25.30;43.72;100701.11;104769;1284;62195;-84
2023/06/15 06:28:14;;;;;;;;;;;;;;;25.30;43.63;100700.39;105448;1285;62146;-83
2023/06/15 06:30:40;;;;;;;;;;;;;;;25.31;43.77;100697.73;105293;1284;61962;-81
2023/06/15 06:33:06;;;;;;;;;;;;;;;25.32;43.81;100695.65;105146;1283;62251;-82
2023/06/15 06:35:32;;;;;;;;;;;;;;;25.33;43.76;100694.85;104930;1288;62237;-82
2023/06/15 06:37:57;;;;;;;;;;;;;;;25.35;44.05;100696.73;105038;1284;62073;-82
2023/06/15 06:40:25;;;;;;;;;;;;;;;25.35;43.89;100697.22;105015;1289;62092;-82
2023/06/15 06:42:51;;;;;;;;;;;;;;;25.36;43.87;100697.31;105148;1287;60494;-85
2023/06/15 06:45:17;;;;;;;;;;;;;;;25.36;43.83;100698.79;105117;1285;62068;-82
2023/06/15 06:47:45;;;;;;;;;;;;;;;25.36;43.74;100698.07;105302;1285;60135;-82
2023/06/15 06:50:11;;;;;;;;;;;;;;;25.36;43.73;100696.40;105302;1285;62148;-83
2023/06/15 06:52:42;;;;;;;;;;;;;;;25.36;43.71;100690.26;105145;1286;62062;-83
2023/06/15 06:55:11;;;;;;;;;;;;;;;25.35;43.52;100685.70;105447;1285;65921;-83
2023/06/15 06:57:40;;;;;;;;;;;;;;;25.34;43.52;100678.75;105494;1285;60528;-84
2023/06/15 07:00:06;;;;;;;;;;;;;;;25.34;43.57;100676.10;105485;1284;60295;-83
2023/06/15 07:02:32;;;;;;;;;;;;;;;25.34;43.54;100675.19;105430;1285;62135;-82
2023/06/15 07:04:58;;;;;;;;;;;;;;;25.34;43.55;100675.00;105261;1285;62063;-83
2023/06/15 07:07:25;;;;;;;;;;;;;;;25.34;43.48;100676.08;105413;1285;62099;-82
2023/06/15 07:09:50;;;;;;;;;;;;;;;25.34;43.33;100676.96;105337;1285;62641;-82
2023/06/15 07:12:16;;;;;;;;;;;;;;;25.36;43.41;100679.70;105396;1284;60028;-82
2023/06/15 07:14:41;;;;;;;;;;;;;;;25.39;43.20;100681.77;104637;1285;722228;-82
2023/06/15 07:17:07;;;;;;;;;;;;;;;25.39;43.02;100676.91;105546;1285;62072;-82
2023/06/15 07:19:32;;;;;;;;;;;;;;;25.40;43.08;100678.80;105203;1285;63072;-84
2023/06/15 07:21:58;;;;;;;;;;;;;;;25.41;43.12;100679.36;105297;1288;60625;-82
2023/06/15 07:24:23;;;;;;;;;;;;;;;25.44;42.97;100677.17;105153;1285;62015;-83
2023/06/15 07:26:48;;;;;;;;;;;;;;;25.44;42.88;100675.34;105424;1286;65795;-83
2023/06/15 07:29:14;;;;;;;;;;;;;;;25.44;42.97;100673.17;105534;1285;65889;-83
2023/06/15 07:31:39;;;;;;;;;;;;;;;25.44;42.77;100670.30;105278;1285;60326;-83
2023/06/15 07:34:08;;;;;;;;;;;;;;;25.44;42.71;100670.66;105293;1285;62252;-83
2023/06/15 07:36:34;;;;;;;;;;;;;;;25.44;42.84;100671.40;105222;1285;62776;-83
2023/06/15 07:38:59;;;;;;;;;;;;;;;25.44;42.73;100670.63;105208;1285;62282;-83
2023/06/15 07:41:25;;;;;;;;;;;;;;;25.44;42.54;100674.10;105465;1286;60915;-83
2023/06/15 07:43:50;;;;;;;;;;;;;;;25.43;42.64;100670.89;105350;1285;62187;-83
2023/06/15 07:46:16;;;;;;;;;;;;;;;25.44;42.42;100669.06;105349;1285;62147;-83
2023/06/15 07:48:42;;;;;;;;;;;;;;;25.44;42.38;100663.10;105361;1285;63148;-83
2023/06/15 07:51:08;;;;;;;;;;;;;;;25.44;42.20;100667.77;105646;1284;60438;-80
2023/06/15 07:53:33;;;;;;;;;;;;;;;25.45;42.12;100669.17;105410;1285;60609;-82
2023/06/15 07:55:58;;;;;;;;;;;;;;;25.46;41.85;100664.56;105326;1285;62056;-81
2023/06/15 07:58:24;;;;;;;;;;;;;;;25.47;42.06;100666.08;105635;1284;62104;-83
2023/06/15 08:00:50;;;;;;;;;;;;;;;25.49;41.88;100666.92;105572;1285;64338;-82
2023/06/15 08:03:15;;;;;;;;;;;;;;;25.50;42.04;100668.44;105585;1285;62184;-83
2023/06/15 08:05:43;;;;;;;;;;;;;;;25.54;41.60;100666.51;105468;1285;61979;-85
2023/06/15 08:08:09;;;;;;;;;;;;;;;25.56;41.29;100662.32;105598;1289;62124;-80
2023/06/15 08:10:35;;;;;;;;;;;;;;;25.59;41.40;100656.87;105290;1286;62086;-81
2023/06/15 08:13:00;;;;;;;;;;;;;;;25.60;41.57;100656.04;105511;1284;62137;-81
2023/06/15 08:15:26;;;;;;;;;;;;;;;25.61;41.24;100648.16;105348;1284;60625;-81
2023/06/15 08:17:52;;;;;;;;;;;;;;;25.62;41.10;100644.14;105145;1285;62307;-81
2023/06/15 08:20:17;;;;;;;;;;;;;;;25.63;41.11;100651.83;105410;1286;60777;-81
2023/06/15 08:22:43;;;;;;;;;;;;;;;25.64;41.11;100649.02;105543;1288;62098;-82
2023/06/15 08:25:09;;;;;;;;;;;;;;;25.63;41.03;100647.48;105467;1285;62192;-82
2023/06/15 08:27:35;;;;;;;;;;;;;;;25.62;41.08;100640.33;105542;1284;62047;-82
2023/06/15 08:30:01;;;;;;;;;;;;;;;25.63;40.93;100645.71;105396;1288;60969;-82
2023/06/15 08:32:26;;;;;;;;;;;;;;;25.63;41.05;100650.31;105716;1285;62188;-81
2023/06/15 08:34:53;;;;;;;;;;;;;;;25.64;40.91;100647.75;105930;1285;60490;-81
2023/06/15 08:37:18;;;;;;;;;;;;;;;25.63;40.78;100647.86;105850;1284;67890;-82
2023/06/15 08:39:43;;;;;;;;;;;;;;;25.60;40.63;100648.58;105942;1284;61458;-82
2023/06/15 08:42:09;;;;;;;;;;;;;;;25.59;40.74;100646.36;105803;1284;60453;-81
2023/06/15 08:44:36;;;;;;;;;;;;;;;25.59;40.63;100647.61;105645;1289;60235;-82
2023/06/15 08:47:03;;;;;;;;;;;;;;;25.60;40.69;100650.98;105476;1285;60424;-82
2023/06/15 08:49:32;;;;;;;;;;;;;;;25.61;40.97;100649.11;105731;1285;62171;-82
2023/06/15 08:52:00;;;;;;;;;;;;;;;25.62;40.91;100650.64;105669;1285;62073;-81
2023/06/15 08:54:31;;;;;;;;;;;;;;;25.62;40.65;100647.91;105690;1284;63771;-81
2023/06/15 08:56:56;;;;;;;;;;;;;;;25.63;40.58;100642.41;105364;1285;66885;-82
2023/06/15 08:59:22;;;;;;;;;;;;;;;25.64;40.57;100642.52;105153;1285;61319;-82
2023/06/15 09:01:47;;;;;;;;;;;;;;;25.66;40.89;100639.07;105713;1284;62206;-82
2023/06/15 09:04:13;;;;;;;;;;;;;;;25.69;41.19;100638.48;105463;1290;62254;-81
2023/06/15 09:06:40;;;;;;;;;;;;;;;25.69;41.36;100638.78;105228;1285;61787;-82
2023/06/15 09:09:06;;;;;;;;;;;;;;;25.69;41.54;100636.14;105270;1285;67203;-81
2023/06/15 09:11:37;;;;;;;;;;;;;;;25.67;41.56;100636.59;105576;1285;60536;-82
2023/06/15 09:14:05;;;;;;;;;;;;;;;25.66;41.53;100637.11;105319;1285;62136;-81
2023/06/15 09:16:30;;;;;;;;;;;;;;;25.64;41.24;100632.09;105277;1285;64824;-82
2023/06/15 09:18:56;;;;;;;;;;;;;;;25.62;41.05;100630.14;105349;1285;60395;-81
2023/06/15 09:21:22;;;;;;;;;;;;;;;25.62;40.97;100628.15;105497;1285;60930;-82
2023/06/15 09:23:47;;;;;;;;;;;;;;;25.60;40.92;100622.85;105305;1285;60498;-81
2023/06/15 09:26:22;;;;;;;;;;;;;;;25.60;40.85;100618.95;105263;1288;61950;-81
2023/06/15 09:28:47;;;;;;;;;;;;;;;25.59;40.77;100616.80;105236;1285;63927;-81
2023/06/15 09:31:27;;;;;;;;;;;;;;;25.62;40.41;100611.60;105188;1285;62185;-81
2023/06/15 09:34:09;;;;;;;;;;;;;;;25.62;40.45;100606.11;105199;1284;62023;-81
2023/06/15 09:36:49;;;;;;;;;;;;;;;25.63;40.40;100599.76;105168;1284;62166;-81
2023/06/15 09:39:15;;;;;;;;;;;;;;;25.62;40.38;100598.39;105501;1288;64921;-81
2023/06/15 09:41:56;;;;;;;;;;;;;;;25.63;40.37;100600.16;105168;1284;67461;-81
2023/06/15 09:44:22;;;;;;;;;;;;;;;25.64;40.37;100601.23;105203;1284;60579;-82
2023/06/15 09:46:53;;;;;;;;;;;;;;;25.66;40.27;100604.32;104806;1288;62194;-81
2023/06/15 09:49:25;;;;;;;;;;;;;;;25.67;40.19;100601.54;104872;1290;66124;-81
2023/06/15 09:51:50;;;;;;;;;;;;;;;25.68;39.96;100593.33;106220;1285;67576;-82
2023/06/15 09:54:17;;;;;;;;;;;;;;;25.69;39.67;100586.54;105067;1285;62210;-81
2023/06/15 09:56:42;;;;;;;;;;;;;;;25.69;39.82;100583.84;104990;1285;60269;-82
2023/06/15 09:59:08;;;;;;;;;;;;;;;25.69;39.71;100586.14;105222;1285;62189;-85
2023/06/15 10:01:34;;;;;;;;;;;;;;;25.69;39.76;100583.48;105706;1285;61221;-83
2023/06/15 10:03:59;;;;;;;;;;;;;;;25.69;39.78;100581.33;105652;1285;60461;-83
2023/06/15 10:06:25;;;;;;;;;;;;;;;25.69;39.88;100578.91;105855;1288;60816;-82
2023/06/15 10:08:53;;;;;;;;;;;;;;;25.71;39.78;100577.65;105665;1285;60263;-82
2023/06/15 10:11:22;;;;;;;;;;;;;;;25.72;39.89;100578.50;105818;1284;64763;-82
2023/06/15 10:13:47;;;;;;;;;;;;;;;25.71;39.71;100578.77;105374;1286;66654;-82
2023/06/15 10:16:15;;;;;;;;;;;;;;;25.72;39.56;100572.77;105379;1285;62294;-83
2023/06/15 10:18:41;;;;;;;;;;;;;;;25.73;39.58;100565.95;106365;1285;59914;-83
2023/06/15 10:21:07;;;;;;;;;;;;;;;25.74;39.32;100563.50;106462;1287;60301;-83
2023/06/15 10:23:32;;;;;;;;;;;;;;;25.74;39.52;100564.64;105284;1288;62100;-83
2023/06/15 10:25:58;;;;;;;;;;;;;;;25.74;39.66;100561.31;105161;1284;62236;-83
2023/06/15 10:28:23;;;;;;;;;;;;;;;25.74;39.28;100565.64;105315;1291;60447;-83
2023/06/15 10:30:49;;;;;;;;;;;;;;;25.76;39.21;100566.58;105349;1288;62287;-83
2023/06/15 10:33:19;;;;;;;;;;;;;;;25.79;39.08;100566.51;105071;1284;65254;-83
2023/06/15 10:35:47;;;;;;;;;;;;;;;25.80;39.10;100561.74;106542;1285;67567;-83
2023/06/15 10:38:21;;;;;;;;;;;;;;;25.80;38.85;100556.68;106416;1285;59867;-83
2023/06/15 10:40:50;;;;;;;;;;;;;;;25.80;38.88;100554.52;106170;1285;60446;-83
2023/06/15 10:43:17;;;;;;;;;;;;;;;25.79;39.11;100556.60;104663;1285;63954;-83
2023/06/15 10:45:42;;;;;;;;;;;;;;;25.78;38.95;100557.61;104869;1285;66514;-83
2023/06/15 10:48:08;;;;;;;;;;;;;;;25.77;38.85;100554.62;104927;1285;62182;-83
2023/06/15 10:50:37;;;;;;;;;;;;;;;25.76;38.71;100556.13;104985;1286;62129;-82
2023/06/15 10:53:03;;;;;;;;;;;;;;;25.75;38.55;100549.70;104760;1285;64798;-83
2023/06/15 10:55:28;;;;;;;;;;;;;;;25.76;38.56;100547.26;104786;1288;62081;-83
2023/06/15 10:58:13;;;;;;;;;;;;;;;25.75;38.54;100545.01;104624;1285;62381;-83
2023/06/15 11:00:45;;;;;;;;;;;;;;;25.74;38.72;100543.92;104845;1286;62129;-83
2023/06/15 11:03:24;;;;;;;;;;;;;;;25.71;38.76;100541.46;104726;1288;65284;-83
2023/06/15 11:05:59;;;;;;;;;;;;;;;25.70;38.71;100539.95;104852;1284;67699;-82
2023/06/15 11:08:25;;;;;;;;;;;;;;;25.69;38.81;100538.94;104613;1285;62074;-83
2023/06/15 11:10:51;;;;;;;;;;;;;;;25.68;38.70;100533.23;104498;1285;62080;-82
2023/06/15 11:13:23;;;;;;;;;;;;;;;25.68;38.80;100531.09;104278;1285;62225;-83
2023/06/15 11:15:48;;;;;;;;;;;;;;;25.67;38.76;100528.11;104260;1288;66733;-82
2023/06/15 11:18:14;;;;;;;;;;;;;;;25.67;38.69;100524.88;104556;1285;62159;-83
2023/06/15 11:20:43;;;;;;;;;;;;;;;25.66;38.58;100522.43;104491;1285;62085;-83
2023/06/15 11:23:14;;;;;;;;;;;;;;;25.67;38.65;100520.81;104627;1285;63728;-83
2023/06/15 11:25:45;;;;;;;;;;;;;;;25.66;38.68;100515.60;104311;1286;67699;-83
2023/06/15 11:28:11;;;;;;;;;;;;;;;25.66;38.74;100511.27;104593;1285;62075;-83
2023/06/15 11:30:40;;;;;;;;;;;;;;;25.67;38.73;100514.06;105740;1285;62166;-83
2023/06/15 11:33:09;;;;;;;;;;;;;;;25.67;38.73;100506.70;104450;1285;63886;-82
2023/06/15 11:35:35;;;;;;;;;;;;;;;25.67;38.83;100507.98;104051;1285;67942;-82
2023/06/15 11:38:02;;;;;;;;;;;;;;;25.66;38.76;100504.82;104009;1288;62098;-83
2023/06/15 11:40:27;;;;;;;;;;;;;;;25.66;38.82;100503.53;104151;1289;63962;-82
2023/06/15 11:42:53;;;;;;;;;;;;;;;25.66;38.98;100498.54;104293;1288;61294;-83
2023/06/15 11:45:19;;;;;;;;;;;;;;;25.66;38.86;100493.66;104105;1288;62657;-82
2023/06/15 11:47:47;;;;;;;;;;;;;;;25.66;38.72;100494.54;104253;1285;62166;-82
2023/06/15 11:50:17;;;;;;;;;;;;;;;25.66;38.94;100493.13;104550;1285;62171;-82
2023/06/15 11:52:49;;;;;;;;;;;;;;;25.65;38.81;100490.52;104520;1285;64117;-83
2023/06/15 11:55:16;;;;;;;;;;;;;;;25.65;39.09;100488.58;104640;1285;62163;-83
2023/06/15 11:57:42;;;;;;;;;;;;;;;25.64;38.99;100488.80;104508;1288;62135;-83
2023/06/15 12:00:08;;;;;;;;;;;;;;;25.64;39.15;100489.58;104262;1286;63298;-82
2023/06/15 12:02:34;;;;;;;;;;;;;;;25.63;39.20;100487.27;104199;1290;62182;-83
2023/06/15 12:05:00;;;;;;;;;;;;;;;25.63;39.18;100481.02;104207;1286;62228;-83
2023/06/15 12:07:27;;;;;;;;;;;;;;;25.62;39.00;100482.70;104952;1284;63368;-83
2023/06/15 12:09:52;;;;;;;;;;;;;;;25.62;39.20;100479.09;104621;1285;62162;-83
2023/06/15 12:12:28;;;;;;;;;;;;;;;25.62;38.99;100476.73;105395;1285;62107;-82
2023/06/15 12:14:53;;;;;;;;;;;;;;;25.63;38.85;100480.24;104908;1285;63877;-83
2023/06/15 12:17:26;;;;;;;;;;;;;;;25.65;39.05;100477.03;104804;1284;62091;-83
2023/06/15 12:19:57;;;;;;;;;;;;;;;25.66;38.98;100476.56;104474;1289;62277;-83
2023/06/15 12:22:31;;;;;;;;;;;;;;;25.67;38.72;100469.92;104907;1285;62084;-83